Time;durP1;ratioP1;P1;durP2;ratioP2;P2;SDS_P1;SDS_P2;PMS_P1;PMS_P2;Temp;Humidity;BMP_temperature;BMP_pressure;BME280_temperature;BME280_humidity;BME280_pressure;Samples;Min_cycle;Max_cycle;Signal;HPM_P1;HPM_P2
2023/04/04 00:02:21;;;;;;;12.32;8.15;;;4.70;99.70;;;;;;5113851;27;20230;-76
2023/04/04 00:04:48;;;;;;;20.05;11.60;;;4.70;99.70;;;;;;5112350;27;20303;-75
2023/04/04 00:07:15;;;;;;;33.72;19.05;;;4.60;99.80;;;;;;5114141;27;20664;-77
2023/04/04 00:09:44;;;;;;;19.15;9.80;;;4.60;99.80;;;;;;5113381;27;20668;-77
2023/04/04 00:12:11;;;;;;;22.88;13.48;;;4.50;99.80;;;;;;5113746;27;20218;-77
2023/04/04 00:14:38;;;;;;;16.33;10.40;;;4.50;99.90;;;;;;5124566;27;20244;-75
2023/04/04 00:17:07;;;;;;;14.38;10.20;;;4.60;99.90;;;;;;5138590;27;20252;-77
2023/04/04 00:19:34;;;;;;;7.60;5.78;;;4.50;99.90;;;;;;5135270;27;20233;-76
2023/04/04 00:22:01;;;;;;;6.45;4.55;;;4.50;99.90;;;;;;5135108;27;20226;-75
2023/04/04 00:24:29;;;;;;;7.43;4.72;;;4.50;99.90;;;;;;5123918;27;20214;-77
2023/04/04 00:26:58;;;;;;;4.25;3.20;;;4.50;99.90;;;;;;5119561;27;20242;-77
2023/04/04 00:29:25;;;;;;;6.55;4.32;;;4.40;99.90;;;;;;5114823;27;20302;-77
2023/04/04 00:31:52;;;;;;;7.00;3.08;;;4.40;99.90;;;;;;5114800;27;20242;-75
2023/04/04 00:34:19;;;;;;;7.28;3.45;;;4.40;99.90;;;;;;5114196;27;20325;-77
2023/04/04 00:36:46;;;;;;;5.63;3.25;;;4.40;99.90;;;;;;5113428;27;20258;-77
2023/04/04 00:39:13;;;;;;;5.50;3.00;;;4.40;99.90;;;;;;5114223;27;20227;-75
2023/04/04 00:41:41;;;;;;;11.15;4.68;;;4.30;99.90;;;;;;5116505;27;20272;-75
2023/04/04 00:44:10;;;;;;;7.28;5.22;;;4.40;99.90;;;;;;5115389;27;20280;-77
2023/04/04 00:46:37;;;;;;;5.13;4.13;;;4.40;99.90;;;;;;5114515;27;20237;-77
2023/04/04 00:49:04;;;;;;;6.38;3.30;;;4.30;99.90;;;;;;5114666;27;20287;-77
2023/04/04 00:51:31;;;;;;;5.88;3.83;;;4.30;99.90;;;;;;5114977;27;20222;-75
2023/04/04 00:53:59;;;;;;;8.10;3.58;;;4.30;99.90;;;;;;5114944;27;20280;-75
2023/04/04 00:56:26;;;;;;;5.00;2.97;;;4.30;99.90;;;;;;5114317;27;20222;-75
2023/04/04 00:58:53;;;;;;;4.65;2.40;;;4.20;99.90;;;;;;5124351;27;20566;-75
2023/04/04 01:01:24;;;;;;;11.18;2.80;;;4.20;99.90;;;;;;5153980;27;20229;-75
2023/04/04 01:03:51;;;;;;;7.05;2.83;;;4.20;99.90;;;;;;5153252;27;20236;-75
2023/04/04 01:06:22;;;;;;;3.92;2.97;;;4.20;99.90;;;;;;5154631;27;20229;-75
2023/04/04 01:08:49;;;;;;;4.00;2.70;;;4.30;99.90;;;;;;5155112;27;20222;-75
2023/04/04 01:11:16;;;;;;;4.63;2.10;;;4.30;99.90;;;;;;5158172;27;20270;-75
2023/04/04 01:13:46;;;;;;;3.42;2.25;;;4.30;99.90;;;;;;5157343;27;20578;-77
2023/04/04 01:16:14;;;;;;;7.25;2.70;;;4.30;99.90;;;;;;5158434;27;20252;-77
2023/04/04 01:18:43;;;;;;;4.68;2.33;;;4.30;99.90;;;;;;5159604;27;20254;-75
2023/04/04 01:21:15;;;;;;;6.13;2.92;;;4.30;99.90;;;;;;5159315;27;20222;-74
2023/04/04 01:23:52;;;;;;;5.10;2.42;;;4.30;99.90;;;;;;5161295;27;20620;-74
2023/04/04 01:26:27;;;;;;;3.50;2.42;;;4.30;99.90;;;;;;5153961;27;20246;-74
2023/04/04 01:28:58;;;;;;;3.67;2.75;;;4.30;99.90;;;;;;5156412;27;20229;-75
2023/04/04 01:31:29;;;;;;;4.03;2.05;;;4.30;99.90;;;;;;5137568;27;20225;-76
2023/04/04 01:34:05;;;;;;;5.45;2.75;;;4.30;99.90;;;;;;5140867;27;20222;-75
2023/04/04 01:36:40;;;;;;;5.50;3.20;;;4.30;99.90;;;;;;5138724;27;20229;-76
2023/04/04 01:39:18;;;;;;;8.23;3.08;;;4.30;99.90;;;;;;5137347;27;20597;-75
2023/04/04 01:41:48;;;;;;;3.95;3.10;;;4.30;99.90;;;;;;5136511;27;20713;-75
2023/04/04 01:44:25;;;;;;;5.25;3.20;;;4.30;99.90;;;;;;5136841;27;20714;-77
2023/04/04 01:46:54;;;;;;;5.00;2.67;;;4.30;99.90;;;;;;5135993;27;20228;-74
2023/04/04 01:49:22;;;;;;;4.05;2.53;;;4.30;99.90;;;;;;5135604;27;20313;-77
2023/04/04 01:51:50;;;;;;;3.42;2.75;;;4.20;99.90;;;;;;5134878;27;20651;-75
2023/04/04 01:54:17;;;;;;;4.95;2.88;;;4.20;99.90;;;;;;5136159;27;20222;-75
2023/04/04 01:56:46;;;;;;;4.10;2.38;;;4.30;99.90;;;;;;5137536;27;20702;-77
2023/04/04 01:59:15;;;;;;;3.20;2.10;;;4.20;99.90;;;;;;5136157;27;20226;-77
2023/04/04 02:01:42;;;;;;;3.65;2.67;;;4.20;99.90;;;;;;5135583;27;20564;-77
2023/04/04 02:04:17;;;;;;;4.55;2.70;;;4.20;99.90;;;;;;5135753;27;20225;-74
2023/04/04 02:06:44;;;;;;;4.45;2.47;;;4.20;99.90;;;;;;5135997;27;20237;-74
2023/04/04 02:09:12;;;;;;;6.05;3.42;;;4.20;99.90;;;;;;5135497;27;20229;-77
2023/04/04 02:11:39;;;;;;;10.50;4.35;;;4.20;99.90;;;;;;5136828;27;20229;-75
2023/04/04 02:14:07;;;;;;;4.38;3.03;;;4.20;99.90;;;;;;5136250;27;20217;-74
2023/04/04 02:16:34;;;;;;;4.10;2.97;;;4.20;99.90;;;;;;5135451;27;20233;-75
2023/04/04 02:19:04;;;;;;;6.50;2.92;;;4.20;99.90;;;;;;5134064;27;20237;-75
2023/04/04 02:21:33;;;;;;;7.63;2.63;;;4.20;99.90;;;;;;5136684;27;20230;-76
2023/04/04 02:24:00;;;;;;;3.92;2.67;;;4.20;99.90;;;;;;5160196;27;20562;-74
2023/04/04 02:26:28;;;;;;;5.47;2.42;;;4.20;99.90;;;;;;5137682;27;20617;-77
2023/04/04 02:28:55;;;;;;;3.53;2.35;;;4.20;99.90;;;;;;5137124;27;20222;-77
2023/04/04 02:31:23;;;;;;;4.03;2.80;;;4.20;99.90;;;;;;5130021;27;20210;-78
2023/04/04 02:33:55;;;;;;;3.38;2.97;;;4.20;99.90;;;;;;5148503;27;20252;-77
2023/04/04 02:36:24;;;;;;;5.15;2.72;;;4.20;99.90;;;;;;5138071;27;20264;-77
2023/04/04 02:38:52;;;;;;;4.93;3.30;;;4.20;99.90;;;;;;5136167;27;20287;-74
2023/04/04 02:41:20;;;;;;;3.88;2.80;;;4.20;99.90;;;;;;5136676;27;20285;-77
2023/04/04 02:43:47;;;;;;;4.18;2.20;;;4.20;99.90;;;;;;5136272;27;20313;-75
2023/04/04 02:46:14;;;;;;;6.22;2.58;;;4.20;99.90;;;;;;5136091;27;20233;-77
2023/04/04 02:48:46;;;;;;;2.60;2.40;;;4.20;99.90;;;;;;5137719;27;20233;-75
2023/04/04 02:51:13;;;;;;;4.45;2.95;;;4.20;99.90;;;;;;5138331;27;20237;-77
2023/04/04 02:53:40;;;;;;;8.48;3.35;;;4.20;99.90;;;;;;5141986;27;20218;-77
2023/04/04 02:56:11;;;;;;;3.65;3.10;;;4.10;99.90;;;;;;5140211;27;20662;-75
2023/04/04 02:58:38;;;;;;;5.00;2.88;;;4.10;99.90;;;;;;5140239;27;20667;-77
2023/04/04 03:01:11;;;;;;;2.97;2.42;;;4.10;99.90;;;;;;5133979;27;20222;-77
2023/04/04 03:03:48;;;;;;;5.50;2.63;;;4.10;99.90;;;;;;5141095;27;20213;-75
2023/04/04 03:06:17;;;;;;;3.47;2.88;;;4.10;99.90;;;;;;5135790;27;20254;-75
2023/04/04 03:08:44;;;;;;;5.40;2.83;;;4.10;99.90;;;;;;5137468;27;20226;-76
2023/04/04 03:11:17;;;;;;;3.17;2.17;;;4.00;99.90;;;;;;5144649;27;20222;-77
2023/04/04 03:13:43;;;;;;;5.05;2.90;;;4.00;99.90;;;;;;5144480;27;20224;-77
2023/04/04 03:16:12;;;;;;;4.22;2.20;;;4.00;99.90;;;;;;5139511;27;20671;-75
2023/04/04 03:18:39;;;;;;;5.72;2.30;;;3.90;99.90;;;;;;5142841;27;20675;-77
2023/04/04 03:21:06;;;;;;;3.28;2.28;;;3.90;99.90;;;;;;5143552;27;20214;-75
2023/04/04 03:23:34;;;;;;;6.03;2.35;;;3.90;99.90;;;;;;5138283;27;20218;-74
2023/04/04 03:26:01;;;;;;;7.90;2.28;;;3.90;99.90;;;;;;5141533;27;20218;-74
2023/04/04 03:28:28;;;;;;;2.60;2.13;;;3.80;99.90;;;;;;5137730;27;20309;-74
2023/04/04 03:30:55;;;;;;;5.60;2.28;;;3.80;99.90;;;;;;5138848;27;20218;-77
2023/04/04 03:33:23;;;;;;;5.15;2.53;;;3.70;99.90;;;;;;5136341;27;20222;-74
2023/04/04 03:35:50;;;;;;;5.07;1.90;;;3.70;99.90;;;;;;5140681;27;20225;-75
2023/04/04 03:38:17;;;;;;;4.03;1.80;;;3.60;99.90;;;;;;5136799;27;20233;-75
2023/04/04 03:40:46;;;;;;;3.97;2.53;;;3.60;99.90;;;;;;5138560;27;20228;-75
2023/04/04 03:43:13;;;;;;;2.70;2.40;;;3.60;99.90;;;;;;5141945;27;20301;-75
2023/04/04 03:45:43;;;;;;;6.28;2.78;;;3.60;99.90;;;;;;5148485;27;20221;-75
2023/04/04 03:48:11;;;;;;;4.28;2.35;;;3.50;99.90;;;;;;5149557;27;20222;-75
2023/04/04 03:50:42;;;;;;;3.85;1.75;;;3.50;99.90;;;;;;5137347;27;20221;-75
2023/04/04 03:53:09;;;;;;;6.05;2.50;;;3.50;99.90;;;;;;5134141;27;20582;-74
2023/04/04 03:55:36;;;;;;;2.40;2.20;;;3.40;99.90;;;;;;5133781;27;20221;-74
2023/04/04 03:58:05;;;;;;;6.07;2.92;;;3.40;99.90;;;;;;5133907;27;20309;-75
2023/04/04 04:00:32;;;;;;;4.15;2.28;;;3.30;99.90;;;;;;5132938;27;20747;-74
2023/04/04 04:02:59;;;;;;;7.55;3.08;;;3.30;99.90;;;;;;5135833;27;20222;-75
2023/04/04 04:05:26;;;;;;;2.33;2.03;;;3.20;99.90;;;;;;5135796;27;20298;-75
2023/04/04 04:07:52;;;;;;;3.17;2.15;;;3.20;99.90;;;;;;5137612;27;20559;-74
2023/04/04 04:10:20;;;;;;;3.35;2.80;;;3.20;99.90;;;;;;5137601;27;20226;-75
2023/04/04 04:12:47;;;;;;;3.05;2.47;;;3.20;99.90;;;;;;5138292;27;20218;-77
2023/04/04 04:15:15;;;;;;;2.47;2.20;;;3.20;99.90;;;;;;5138963;27;20221;-74
2023/04/04 04:17:42;;;;;;;7.05;3.25;;;3.20;99.90;;;;;;5134524;27;20220;-77
2023/04/04 04:20:10;;;;;;;3.95;2.60;;;3.20;99.90;;;;;;5135476;27;20253;-77
2023/04/04 04:22:37;;;;;;;6.00;3.22;;;3.30;99.90;;;;;;5132474;27;20293;-77
2023/04/04 04:25:05;;;;;;;6.68;2.70;;;3.20;99.90;;;;;;5133614;27;20217;-75
2023/04/04 04:27:37;;;;;;;3.22;2.55;;;3.20;99.90;;;;;;5124005;27;20229;-74
2023/04/04 04:30:05;;;;;;;3.05;2.33;;;3.20;99.90;;;;;;5136442;27;20218;-79
2023/04/04 04:32:34;;;;;;;3.58;2.67;;;3.20;99.90;;;;;;5133270;27;20222;-74
2023/04/04 04:35:01;;;;;;;7.82;2.83;;;3.20;99.90;;;;;;5133205;27;20218;-76
2023/04/04 04:37:28;;;;;;;4.30;3.03;;;3.20;99.90;;;;;;5133482;27;20222;-75
2023/04/04 04:39:55;;;;;;;3.47;2.42;;;3.20;99.90;;;;;;5133256;27;20218;-74
2023/04/04 04:42:24;;;;;;;4.43;2.85;;;3.20;99.90;;;;;;5133336;27;20299;-75
2023/04/04 04:44:51;;;;;;;5.88;2.33;;;3.10;99.90;;;;;;5158471;27;20304;-77
2023/04/04 04:47:18;;;;;;;2.75;2.00;;;3.20;99.90;;;;;;5139129;27;20686;-77
2023/04/04 04:49:48;;;;;;;5.57;2.40;;;3.20;99.90;;;;;;5138597;27;20312;-77
2023/04/04 04:52:15;;;;;;;3.35;2.53;;;3.10;99.90;;;;;;5137566;27;20286;-74
2023/04/04 04:54:48;;;;;;;9.40;3.40;;;3.10;99.90;;;;;;5136726;27;20226;-75
2023/04/04 04:57:15;;;;;;;4.75;3.67;;;3.00;99.90;;;;;;5136864;27;20218;-74
2023/04/04 04:59:42;;;;;;;4.43;3.22;;;3.00;99.90;;;;;;5136350;27;20278;-75
2023/04/04 05:02:09;;;;;;;4.82;3.22;;;3.10;99.90;;;;;;5137328;27;20229;-75
2023/04/04 05:04:40;;;;;;;10.00;3.30;;;3.00;99.90;;;;;;5136803;27;20671;-77
2023/04/04 05:07:08;;;;;;;7.25;3.30;;;3.00;99.90;;;;;;5137080;27;20694;-77
2023/04/04 05:09:35;;;;;;;3.40;3.17;;;3.00;99.90;;;;;;5136252;27;20287;-75
2023/04/04 05:12:04;;;;;;;7.38;3.13;;;3.00;99.90;;;;;;5136743;27;20309;-77
2023/04/04 05:14:31;;;;;;;6.20;3.40;;;3.00;99.90;;;;;;5136467;27;20218;-77
2023/04/04 05:16:58;;;;;;;3.45;3.08;;;3.00;99.90;;;;;;5149172;27;20270;-77
2023/04/04 05:19:25;;;;;;;4.53;3.35;;;3.00;99.90;;;;;;5146830;27;20226;-75
2023/04/04 05:21:52;;;;;;;5.43;3.42;;;3.00;99.90;;;;;;5135929;27;20675;-75
2023/04/04 05:24:21;;;;;;;7.47;3.75;;;3.00;99.90;;;;;;5136675;27;20222;-76
2023/04/04 05:26:48;;;;;;;7.43;4.00;;;3.10;99.90;;;;;;5135940;27;20229;-77
2023/04/04 05:29:16;;;;;;;5.45;3.40;;;3.10;99.90;;;;;;5140795;27;20237;-74
2023/04/04 05:31:43;;;;;;;7.57;5.07;;;3.10;99.90;;;;;;5138541;27;20218;-75
2023/04/04 05:34:10;;;;;;;7.78;4.03;;;3.10;99.90;;;;;;5139962;27;20679;-77
2023/04/04 05:36:37;;;;;;;6.32;4.22;;;3.20;99.90;;;;;;5136715;27;20566;-77
2023/04/04 05:39:04;;;;;;;10.30;4.18;;;3.20;99.90;;;;;;5136021;27;20226;-77
2023/04/04 05:41:33;;;;;;;4.57;2.85;;;3.30;99.90;;;;;;5135876;27;20229;-75
2023/04/04 05:44:00;;;;;;;4.63;3.38;;;3.30;99.90;;;;;;5136578;27;20222;-75
2023/04/04 05:46:28;;;;;;;5.57;3.40;;;3.40;99.90;;;;;;5136419;27;20274;-77
2023/04/04 05:48:55;;;;;;;7.30;4.15;;;3.40;99.90;;;;;;5135945;27;20254;-77
2023/04/04 05:51:23;;;;;;;6.72;3.90;;;3.50;99.90;;;;;;5138415;27;20241;-75
2023/04/04 05:53:50;;;;;;;2.65;2.40;;;3.50;99.90;;;;;;5136579;27;20226;-74
2023/04/04 05:56:20;;;;;;;12.65;2.55;;;3.50;99.90;;;;;;5137171;27;20214;-74
2023/04/04 05:58:49;;;;;;;3.80;2.67;;;3.60;99.90;;;;;;5139702;27;20250;-74
2023/04/04 06:01:17;;;;;;;9.23;4.15;;;3.60;99.90;;;;;;5149319;27;20274;-74
2023/04/04 06:03:44;;;;;;;10.30;3.15;;;3.60;99.90;;;;;;5155671;27;20217;-77
2023/04/04 06:06:11;;;;;;;3.42;2.95;;;3.70;99.90;;;;;;5153876;27;20222;-75
2023/04/04 06:08:38;;;;;;;5.40;3.20;;;3.60;99.90;;;;;;5152324;27;20221;-74
2023/04/04 06:11:06;;;;;;;5.30;3.58;;;3.70;99.90;;;;;;5143723;27;20679;-75
2023/04/04 06:13:33;;;;;;;4.18;3.10;;;3.70;99.90;;;;;;5136871;27;20222;-75
2023/04/04 06:16:01;;;;;;;3.85;3.38;;;3.70;99.90;;;;;;5135461;27;20237;-75
2023/04/04 06:18:30;;;;;;;8.70;3.45;;;3.80;99.90;;;;;;5135137;27;20225;-75
2023/04/04 06:20:57;;;;;;;6.70;3.80;;;3.80;99.90;;;;;;5126266;27;20318;-75
2023/04/04 06:23:24;;;;;;;9.13;3.58;;;3.90;99.90;;;;;;5135326;27;20671;-75
2023/04/04 06:25:51;;;;;;;4.78;3.13;;;3.90;99.90;;;;;;5135042;27;20218;-75
2023/04/04 06:28:18;;;;;;;6.38;3.55;;;4.00;99.90;;;;;;5135280;27;20675;-75
2023/04/04 06:30:45;;;;;;;4.63;2.90;;;4.00;99.90;;;;;;5135493;27;20604;-75
2023/04/04 06:33:13;;;;;;;5.07;3.42;;;4.10;99.90;;;;;;5134932;27;20214;-75
2023/04/04 06:35:40;;;;;;;4.65;2.45;;;4.20;99.90;;;;;;5135157;27;20226;-75
2023/04/04 06:38:08;;;;;;;3.63;3.15;;;4.20;99.90;;;;;;5135184;27;20225;-77
2023/04/04 06:40:35;;;;;;;2.35;2.15;;;4.30;99.90;;;;;;5135166;27;20257;-75
2023/04/04 06:43:02;;;;;;;3.75;3.13;;;4.30;99.90;;;;;;5134300;27;20583;-75
2023/04/04 06:45:32;;;;;;;6.45;3.50;;;4.40;99.90;;;;;;5135132;27;20811;-78
2023/04/04 06:48:00;;;;;;;4.18;2.47;;;4.50;99.90;;;;;;5134544;27;20575;-78
2023/04/04 06:50:31;;;;;;;6.07;2.95;;;4.50;99.90;;;;;;5135478;27;20226;-77
2023/04/04 06:52:58;;;;;;;4.90;3.70;;;4.60;99.90;;;;;;5134339;27;20226;-77
2023/04/04 06:55:26;;;;;;;8.80;3.95;;;4.60;99.90;;;;;;5134904;27;20230;-75
2023/04/04 06:57:53;;;;;;;2.92;2.60;;;4.60;99.90;;;;;;5134039;27;20225;-75
2023/04/04 07:00:21;;;;;;;6.85;3.00;;;4.70;99.90;;;;;;5134690;27;20274;-75
2023/04/04 07:02:48;;;;;;;3.85;2.50;;;4.70;99.90;;;;;;5134352;27;20257;-75
2023/04/04 07:05:16;;;;;;;8.88;2.50;;;4.80;99.90;;;;;;5134314;27;20598;-75
2023/04/04 07:07:45;;;;;;;2.65;2.30;;;4.80;99.90;;;;;;5133381;27;20534;-75
2023/04/04 07:10:12;;;;;;;3.22;2.90;;;4.80;99.90;;;;;;5134146;27;20267;-75
2023/04/04 07:12:42;;;;;;;3.70;2.28;;;4.90;99.90;;;;;;5134499;27;20229;-75
2023/04/04 07:15:11;;;;;;;1.70;1.60;;;4.90;99.90;;;;;;5133963;27;20286;-75
2023/04/04 07:17:39;;;;;;;1.90;1.70;;;5.00;99.90;;;;;;5133992;27;20222;-78
2023/04/04 07:20:10;;;;;;;3.60;1.73;;;5.10;99.90;;;;;;5134169;27;20313;-75
2023/04/04 07:22:38;;;;;;;2.50;1.95;;;5.10;99.90;;;;;;5134308;27;20305;-75
2023/04/04 07:25:09;;;;;;;4.05;2.05;;;5.20;99.90;;;;;;5133652;27;20218;-77
2023/04/04 07:27:36;;;;;;;4.00;2.10;;;5.30;99.90;;;;;;5133611;27;20214;-78
2023/04/04 07:30:07;;;;;;;6.65;2.03;;;5.30;99.90;;;;;;5133419;27;20652;-75
2023/04/04 07:32:34;;;;;;;3.75;2.10;;;5.40;99.90;;;;;;5133967;27;20297;-75
2023/04/04 07:35:01;;;;;;;7.43;3.22;;;5.40;99.90;;;;;;5133738;27;20691;-75
2023/04/04 07:37:28;;;;;;;8.18;2.53;;;5.50;99.90;;;;;;5134112;27;20572;-75
2023/04/04 07:39:55;;;;;;;3.72;2.00;;;5.50;99.90;;;;;;5133740;27;20222;-77
2023/04/04 07:42:25;;;;;;;4.63;2.47;;;5.50;99.70;;;;;;5134133;27;20213;-77
2023/04/04 07:44:55;;;;;;;4.55;1.95;;;5.60;99.80;;;;;;5133870;27;20275;-75
2023/04/04 07:47:22;;;;;;;4.32;3.35;;;5.60;99.70;;;;;;5133383;27;20232;-75
2023/04/04 07:49:49;;;;;;;3.03;2.30;;;5.60;99.70;;;;;;5133800;27;20675;-77
2023/04/04 07:52:16;;;;;;;3.17;2.30;;;5.70;99.40;;;;;;5133595;27;20222;-75
2023/04/04 07:54:43;;;;;;;4.35;2.30;;;5.80;99.40;;;;;;5133868;27;20283;-75
2023/04/04 07:57:10;;;;;;;2.70;2.03;;;5.80;99.20;;;;;;5135209;27;20216;-77
2023/04/04 07:59:38;;;;;;;3.63;2.08;;;5.90;99.20;;;;;;5134125;27;20225;-76
2023/04/04 08:02:05;;;;;;;8.60;1.95;;;5.90;98.60;;;;;;5132945;27;20234;-75
2023/04/04 08:04:32;;;;;;;2.38;1.70;;;5.90;98.40;;;;;;5134026;27;20229;-75
2023/04/04 08:06:59;;;;;;;2.80;1.80;;;6.00;98.50;;;;;;5133500;27;20222;-76
2023/04/04 08:09:32;;;;;;;4.50;2.03;;;6.10;98.40;;;;;;5133746;27;20236;-78
2023/04/04 08:12:00;;;;;;;3.00;1.95;;;6.20;98.30;;;;;;5135485;27;20313;-77
2023/04/04 08:14:27;;;;;;;1.90;1.70;;;6.30;98.00;;;;;;5136833;27;20220;-78
2023/04/04 08:16:55;;;;;;;2.88;1.65;;;6.30;97.80;;;;;;5142681;27;20372;-77
2023/04/04 08:19:23;;;;;;;2.70;2.20;;;6.40;97.60;;;;;;5149745;27;20280;-77
2023/04/04 08:21:50;;;;;;;2.67;2.00;;;6.40;97.40;;;;;;5154517;27;20251;-78
2023/04/04 08:24:18;;;;;;;4.43;1.60;;;6.50;97.00;;;;;;5156374;27;20213;-77
2023/04/04 08:26:45;;;;;;;1.92;1.40;;;6.60;96.20;;;;;;5142986;27;20252;-77
2023/04/04 08:29:14;;;;;;;3.80;1.77;;;6.60;96.10;;;;;;5155716;27;20263;-77
2023/04/04 08:31:42;;;;;;;2.03;1.30;;;6.60;96.20;;;;;;5140220;27;20600;-77
2023/04/04 08:34:10;;;;;;;2.63;2.33;;;6.70;96.20;;;;;;5138994;27;20241;-78
2023/04/04 08:36:40;;;;;;;4.03;1.40;;;6.70;95.80;;;;;;5137603;27;20225;-77
2023/04/04 08:39:07;;;;;;;4.47;1.55;;;6.70;95.40;;;;;;5137450;27;20217;-77
2023/04/04 08:41:43;;;;;;;3.40;1.58;;;6.80;94.90;;;;;;5125082;27;20309;-77
2023/04/04 08:44:17;;;;;;;4.50;1.60;;;6.80;94.80;;;;;;5137580;27;20225;-77
2023/04/04 08:46:45;;;;;;;2.35;1.40;;;6.90;94.50;;;;;;5137986;27;20298;-78
2023/04/04 08:49:16;;;;;;;1.98;1.73;;;6.90;94.10;;;;;;5136869;27;20281;-77
2023/04/04 08:51:44;;;;;;;4.20;1.63;;;6.90;94.00;;;;;;5138093;27;20218;-77
2023/04/04 08:54:14;;;;;;;2.60;1.40;;;6.90;93.40;;;;;;5136616;27;20317;-77
2023/04/04 08:56:41;;;;;;;4.68;1.90;;;7.00;93.20;;;;;;5137245;27;20214;-77
2023/04/04 08:59:10;;;;;;;5.63;2.35;;;7.00;92.90;;;;;;5136636;27;20225;-77
2023/04/04 09:01:37;;;;;;;4.60;2.30;;;7.10;92.90;;;;;;5137242;27;20226;-77
2023/04/04 09:04:05;;;;;;;3.03;2.00;;;7.20;93.00;;;;;;5137165;27;20218;-77
2023/04/04 09:06:34;;;;;;;3.17;2.03;;;7.20;92.70;;;;;;5137082;27;20222;-77
2023/04/04 09:09:02;;;;;;;3.30;1.58;;;7.30;91.40;;;;;;5137039;27;20226;-77
2023/04/04 09:11:31;;;;;;;1.80;1.70;;;7.30;91.60;;;;;;5136892;27;20301;-77
2023/04/04 09:14:01;;;;;;;1.77;1.65;;;7.40;91.60;;;;;;5135597;27;20257;-78
2023/04/04 09:16:29;;;;;;;2.72;1.67;;;7.50;91.50;;;;;;5138969;27;20229;-78
2023/04/04 09:18:56;;;;;;;2.40;1.30;;;7.50;91.50;;;;;;5139249;27;20226;-78
2023/04/04 09:21:25;;;;;;;3.70;1.52;;;7.60;91.30;;;;;;5138605;27;20670;-75
2023/04/04 09:24:01;;;;;;;2.25;1.80;;;7.60;90.90;;;;;;5137907;27;20276;-77
2023/04/04 09:26:28;;;;;;;2.17;1.33;;;7.70;90.10;;;;;;5137837;27;20217;-76
2023/04/04 09:28:55;;;;;;;2.08;1.40;;;7.70;89.40;;;;;;5137647;27;20226;-75
2023/04/04 09:31:28;;;;;;;3.42;1.88;;;7.70;88.40;;;;;;5137167;27;20229;-76
2023/04/04 09:33:55;;;;;;;2.70;1.70;;;7.80;88.90;;;;;;5137888;27;20275;-75
2023/04/04 09:36:22;;;;;;;2.72;1.85;;;7.90;89.30;;;;;;5136799;27;20524;-76
2023/04/04 09:38:53;;;;;;;5.22;2.10;;;8.00;88.80;;;;;;5139812;27;20218;-76
2023/04/04 09:41:21;;;;;;;4.60;1.90;;;8.10;88.10;;;;;;5138897;27;20233;-75
2023/04/04 09:43:48;;;;;;;1.75;1.35;;;8.10;87.80;;;;;;5137452;27;20218;-75
2023/04/04 09:46:19;;;;;;;1.77;1.33;;;8.20;86.50;;;;;;5136349;27;20226;-76
2023/04/04 09:48:50;;;;;;;3.15;2.85;;;8.20;86.50;;;;;;5138901;27;20244;-77
2023/04/04 09:51:17;;;;;;;2.88;1.42;;;8.20;86.40;;;;;;5137783;27;20233;-77
2023/04/04 09:53:49;;;;;;;3.25;2.17;;;8.10;83.90;;;;;;5137514;27;20214;-77
2023/04/04 09:56:16;;;;;;;3.45;1.30;;;8.20;83.20;;;;;;5136226;27;20235;-78
2023/04/04 09:59:02;;;;;;;2.10;1.30;;;8.30;81.60;;;;;;5137453;27;20282;-76
2023/04/04 10:01:29;;;;;;;3.67;1.85;;;8.30;81.20;;;;;;5136523;27;20314;-78
2023/04/04 10:03:58;;;;;;;1.45;1.20;;;8.40;80.60;;;;;;5136576;27;20287;-78
2023/04/04 10:06:26;;;;;;;2.65;1.60;;;8.50;81.40;;;;;;5133521;27;20279;-77
2023/04/04 10:08:53;;;;;;;3.75;2.03;;;8.50;79.40;;;;;;5131287;27;20307;-77
2023/04/04 10:11:34;;;;;;;2.53;1.20;;;8.60;78.70;;;;;;5121444;27;20679;-76
2023/04/04 10:14:03;;;;;;;2.58;1.55;;;8.60;78.10;;;;;;5135970;27;20704;-76
2023/04/04 10:16:33;;;;;;;1.60;1.35;;;8.60;78.30;;;;;;5120749;27;20853;-76
2023/04/04 10:19:06;;;;;;;2.08;1.42;;;8.60;77.30;;;;;;5115202;27;20310;-75
2023/04/04 10:21:33;;;;;;;2.78;1.45;;;8.60;77.20;;;;;;5115095;27;20699;-77
2023/04/04 10:24:07;;;;;;;1.65;1.10;;;8.60;74.90;;;;;;5120669;27;20214;-78
2023/04/04 10:26:35;;;;;;;3.05;1.73;;;8.60;73.90;;;;;;5137278;27;20218;-76
2023/04/04 10:29:07;;;;;;;1.83;1.50;;;8.60;74.20;;;;;;5135280;27;20283;-75
2023/04/04 10:31:42;;;;;;;5.00;1.55;;;8.70;75.50;;;;;;5137582;27;20210;-78
2023/04/04 10:34:15;;;;;;;1.70;1.58;;;8.80;77.00;;;;;;5140161;27;20221;-75
2023/04/04 10:36:46;;;;;;;2.42;2.05;;;8.90;77.70;;;;;;5144198;27;20292;-75
2023/04/04 10:39:17;;;;;;;1.60;1.50;;;8.90;77.40;;;;;;5138033;27;20238;-75
2023/04/04 10:41:48;;;;;;;1.50;1.23;;;9.00;77.40;;;;;;5125007;27;20215;-75
2023/04/04 10:44:28;;;;;;;3.67;1.40;;;9.10;75.70;;;;;;5117312;27;20219;-75
2023/04/04 10:46:57;;;;;;;2.88;1.45;;;9.10;74.60;;;;;;5117298;27;20218;-75
2023/04/04 10:49:25;;;;;;;2.92;1.95;;;9.10;74.40;;;;;;5112432;27;20593;-75
2023/04/04 10:51:53;;;;;;;3.45;1.67;;;9.10;74.30;;;;;;5114949;27;20398;-75
2023/04/04 10:54:21;;;;;;;2.28;1.70;;;9.10;74.00;;;;;;5114174;27;20218;-75
2023/04/04 10:56:49;;;;;;;2.08;1.25;;;9.10;73.60;;;;;;5114418;27;20829;-74
2023/04/04 10:59:17;;;;;;;2.88;1.27;;;9.10;73.50;;;;;;5113898;27;20227;-75
2023/04/04 11:01:49;;;;;;;1.98;1.27;;;9.10;73.10;;;;;;5114212;27;20234;-77
2023/04/04 11:04:21;;;;;;;2.45;1.50;;;9.20;71.90;;;;;;5113738;27;20552;-75
2023/04/04 11:07:19;;;;;;;3.78;1.63;;;9.30;70.90;;;;;;5113769;27;20351;-76
2023/04/04 11:09:56;;;;;;;3.85;1.98;;;9.30;70.00;;;;;;5114053;27;20222;-75
2023/04/04 11:12:29;;;;;;;1.45;1.10;;;9.30;70.80;;;;;;5131679;27;20316;-76
2023/04/04 11:15:08;;;;;;;24.42;3.05;;;9.40;70.40;;;;;;5120338;27;20226;-78
2023/04/04 11:18:00;;;;;;;2.05;1.20;;;9.50;70.60;;;;;;5135006;27;20236;-78
2023/04/04 11:20:33;;;;;;;2.03;1.60;;;9.50;67.70;;;;;;5134423;27;20230;-78
2023/04/04 11:23:05;;;;;;;1.50;1.40;;;9.50;67.30;;;;;;5134139;27;20226;-76
2023/04/04 11:25:34;;;;;;;3.65;1.52;;;9.50;68.00;;;;;;5133363;27;20222;-78
2023/04/04 11:28:24;;;;;;;2.55;1.15;;;9.40;67.30;;;;;;5134207;27;20248;-75
2023/04/04 11:31:28;;;;;;;1.73;1.30;;;9.40;67.10;;;;;;5133141;27;20218;-76
2023/04/04 11:34:01;;;;;;;2.35;2.15;;;9.40;67.40;;;;;;5133156;27;20293;-78
2023/04/04 11:36:53;;;;;;;3.65;1.95;;;9.50;67.70;;;;;;5134364;27;20594;-75
2023/04/04 11:39:27;;;;;;;4.20;2.55;;;9.50;67.70;;;;;;5134080;27;20309;-77
2023/04/04 11:41:56;;;;;;;2.72;1.70;;;9.70;66.70;;;;;;5133708;27;20218;-78
2023/04/04 11:44:24;;;;;;;1.70;1.45;;;9.80;65.70;;;;;;5133499;27;20240;-77
2023/04/04 11:46:57;;;;;;;2.15;1.73;;;9.80;64.00;;;;;;5134340;27;20259;-75
2023/04/04 11:49:29;;;;;;;1.90;1.52;;;9.80;61.80;;;;;;5133574;27;20226;-75
2023/04/04 11:51:56;;;;;;;6.43;1.58;;;9.80;61.70;;;;;;5133699;27;20245;-75
2023/04/04 11:54:23;;;;;;;4.30;1.33;;;9.80;61.70;;;;;;5132586;27;20232;-75
2023/04/04 11:56:51;;;;;;;3.20;1.42;;;9.80;61.80;;;;;;5134282;27;20271;-75
2023/04/04 11:59:21;;;;;;;2.85;2.05;;;9.90;61.50;;;;;;5118011;22;20612;-77
2023/04/04 12:01:49;;;;;;;2.22;1.42;;;9.90;61.40;;;;;;5093537;28;20351;-77
2023/04/04 12:04:20;;;;;;;1.65;1.27;;;9.90;61.60;;;;;;5093444;28;20547;-75
2023/04/04 12:06:51;;;;;;;1.30;1.05;;;9.90;60.80;;;;;;5093158;28;20253;-75
2023/04/04 12:09:19;;;;;;;1.65;1.40;;;9.90;59.30;;;;;;5073545;28;20223;-76
2023/04/04 12:11:47;;;;;;;1.95;1.33;;;9.90;59.50;;;;;;5072042;28;20222;-78
2023/04/04 12:14:18;;;;;;;1.30;1.20;;;9.90;59.60;;;;;;5072147;28;20222;-75
2023/04/04 12:16:49;;;;;;;1.85;1.63;;;9.90;59.80;;;;;;5090092;28;20304;-78
2023/04/04 12:19:17;;;;;;;3.17;1.27;;;10.00;59.20;;;;;;5092801;28;20310;-75
2023/04/04 12:21:46;;;;;;;2.22;1.40;;;10.00;59.20;;;;;;5093048;28;20576;-75
2023/04/04 12:24:17;;;;;;;2.80;1.65;;;10.10;58.90;;;;;;5094319;28;20547;-78
2023/04/04 12:26:47;;;;;;;1.63;1.40;;;10.10;59.10;;;;;;5094599;28;20531;-78
2023/04/04 12:29:16;;;;;;;1.45;1.15;;;10.10;59.00;;;;;;5093529;28;20223;-78
2023/04/04 12:31:46;;;;;;;1.10;1.00;;;10.10;58.90;;;;;;5092401;28;20231;-78
2023/04/04 12:34:18;;;;;;;1.70;1.30;;;10.20;58.90;;;;;;5093121;28;20238;-78
2023/04/04 12:36:48;;;;;;;2.22;1.35;;;10.10;58.70;;;;;;5090410;28;20226;-75
2023/04/04 12:39:17;;;;;;;1.20;1.10;;;10.10;57.90;;;;;;5092102;28;20306;-74
2023/04/04 12:41:48;;;;;;;1.33;1.20;;;10.10;57.80;;;;;;5092708;28;20227;-77
2023/04/04 12:44:34;;;;;;;1.10;1.00;;;10.00;57.80;;;;;;5093693;28;20341;-75
2023/04/04 12:47:04;;;;;;;2.55;1.33;;;10.00;58.10;;;;;;5092354;28;20223;-78
2023/04/04 12:49:32;;;;;;;3.58;1.30;;;10.00;58.20;;;;;;5092745;28;20228;-75
2023/04/04 12:52:03;;;;;;;1.42;1.30;;;10.00;58.20;;;;;;5092778;28;20242;-74
2023/04/04 12:54:33;;;;;;;3.15;1.35;;;10.00;58.00;;;;;;5093870;28;20219;-75
2023/04/04 12:57:04;;;;;;;1.45;1.20;;;10.10;58.10;;;;;;5100491;28;20257;-77
2023/04/04 12:59:33;;;;;;;1.30;1.20;;;10.10;58.30;;;;;;5109636;28;20239;-78
2023/04/04 13:02:07;;;;;;;2.20;1.55;;;10.00;58.00;;;;;;5101667;28;20222;-77
2023/04/04 13:04:34;;;;;;;1.73;1.50;;;10.10;58.10;;;;;;5093763;28;20210;-74
2023/04/04 13:07:03;;;;;;;3.55;1.55;;;10.00;57.30;;;;;;5096181;28;20219;-74